sensor_id;sensor_type;location;lat;lon;timestamp;pressure;altitude;pressure_sealevel;temperature;humidity
12468;BME280;57850;52.922;6.256;2023-08-06T00:00:53;100328.44;;;18.85;100.00
12468;BME280;57850;52.922;6.256;2023-08-06T00:03:20;100334.69;;;18.73;100.00
12468;BME280;57850;52.922;6.256;2023-08-06T00:05:46;100328.81;;;18.69;100.00
12468;BME280;57850;52.922;6.256;2023-08-06T00:08:14;100318.34;;;18.67;100.00
12468;BME280;57850;52.922;6.256;2023-08-06T00:10:40;100320.38;;;18.64;100.00
12468;BME280;57850;52.922;6.256;2023-08-06T00:13:07;100313.56;;;18.73;100.00
12468;BME280;57850;52.922;6.256;2023-08-06T00:15:35;100326.03;;;18.70;100.00
12468;BME280;57850;52.922;6.256;2023-08-06T00:18:02;100326.63;;;18.74;100.00
12468;BME280;57850;52.922;6.256;2023-08-06T00:20:28;100318.81;;;18.61;100.00
12468;BME280;57850;52.922;6.256;2023-08-06T00:22:55;100316.19;;;18.73;100.00
12468;BME280;57850;52.922;6.256;2023-08-06T00:25:21;100318.00;;;18.72;100.00
12468;BME280;57850;52.922;6.256;2023-08-06T00:27:48;100322.19;;;18.75;100.00
12468;BME280;57850;52.922;6.256;2023-08-06T00:30:14;100326.53;;;18.53;100.00
12468;BME280;57850;52.922;6.256;2023-08-06T00:32:42;100298.13;;;18.44;100.00
12468;BME280;57850;52.922;6.256;2023-08-06T00:35:10;100281.84;;;18.50;100.00
12468;BME280;57850;52.922;6.256;2023-08-06T00:37:39;100279.31;;;18.60;100.00
12468;BME280;57850;52.922;6.256;2023-08-06T00:40:07;100297.16;;;18.45;100.00
12468;BME280;57850;52.922;6.256;2023-08-06T00:42:34;100283.25;;;18.54;100.00
12468;BME280;57850;52.922;6.256;2023-08-06T00:45:01;100279.50;;;18.35;100.00
12468;BME280;57850;52.922;6.256;2023-08-06T00:47:28;100275.19;;;18.45;100.00
12468;BME280;57850;52.922;6.256;2023-08-06T00:49:56;100270.53;;;18.59;100.00
12468;BME280;57850;52.922;6.256;2023-08-06T00:52:23;100292.91;;;18.66;100.00
12468;BME280;57850;52.922;6.256;2023-08-06T00:54:49;100296.72;;;18.62;100.00
12468;BME280;57850;52.922;6.256;2023-08-06T00:57:16;100301.06;;;18.63;100.00
12468;BME280;57850;52.922;6.256;2023-08-06T00:59:45;100305.88;;;18.69;100.00
12468;BME280;57850;52.922;6.256;2023-08-06T01:02:12;100304.88;;;18.70;100.00
12468;BME280;57850;52.922;6.256;2023-08-06T01:04:38;100304.19;;;18.68;100.00
12468;BME280;57850;52.922;6.256;2023-08-06T01:07:13;100308.75;;;18.78;100.00
12468;BME280;57850;52.922;6.256;2023-08-06T01:09:50;100319.78;;;18.71;100.00
12468;BME280;57850;52.922;6.256;2023-08-06T01:12:24;100328.53;;;18.61;100.00
12468;BME280;57850;52.922;6.256;2023-08-06T01:14:58;100319.03;;;18.47;100.00
12468;BME280;57850;52.922;6.256;2023-08-06T01:17:27;100299.97;;;18.55;100.00
12468;BME280;57850;52.922;6.256;2023-08-06T01:19:56;100298.28;;;18.65;100.00
12468;BME280;57850;52.922;6.256;2023-08-06T01:22:24;100304.75;;;18.61;100.00
12468;BME280;57850;52.922;6.256;2023-08-06T01:24:51;100315.84;;;18.66;100.00
12468;BME280;57850;52.922;6.256;2023-08-06T01:27:22;100324.94;;;18.62;100.00
12468;BME280;57850;52.922;6.256;2023-08-06T01:29:58;100324.09;;;18.61;100.00
12468;BME280;57850;52.922;6.256;2023-08-06T01:32:29;100322.69;;;18.57;100.00
12468;BME280;57850;52.922;6.256;2023-08-06T01:34:59;100313.06;;;18.56;100.00
12468;BME280;57850;52.922;6.256;2023-08-06T01:37:28;100311.28;;;18.57;100.00
12468;BME280;57850;52.922;6.256;2023-08-06T01:39:54;100330.97;;;18.53;100.00
12468;BME280;57850;52.922;6.256;2023-08-06T01:42:21;100328.75;;;18.47;100.00
12468;BME280;57850;52.922;6.256;2023-08-06T01:44:48;100316.56;;;18.57;100.00
12468;BME280;57850;52.922;6.256;2023-08-06T01:47:15;100324.00;;;18.63;100.00
12468;BME280;57850;52.922;6.256;2023-08-06T01:49:41;100338.31;;;18.60;100.00
12468;BME280;57850;52.922;6.256;2023-08-06T01:52:08;100331.31;;;18.59;100.00
12468;BME280;57850;52.922;6.256;2023-08-06T01:54:36;100323.03;;;18.53;100.00
12468;BME280;57850;52.922;6.256;2023-08-06T01:57:02;100315.81;;;18.55;100.00
12468;BME280;57850;52.922;6.256;2023-08-06T01:59:29;100317.13;;;18.49;100.00
12468;BME280;57850;52.922;6.256;2023-08-06T02:01:56;100308.72;;;18.55;100.00
12468;BME280;57850;52.922;6.256;2023-08-06T02:04:22;100314.38;;;18.51;100.00
12468;BME280;57850;52.922;6.256;2023-08-06T02:06:49;100305.84;;;18.58;100.00
12468;BME280;57850;52.922;6.256;2023-08-06T02:09:16;100319.19;;;18.57;100.00
12468;BME280;57850;52.922;6.256;2023-08-06T02:11:43;100321.22;;;18.53;100.00
12468;BME280;57850;52.922;6.256;2023-08-06T02:14:11;100314.69;;;18.46;100.00
12468;BME280;57850;52.922;6.256;2023-08-06T02:16:37;100319.03;;;18.47;100.00
12468;BME280;57850;52.922;6.256;2023-08-06T02:19:04;100303.81;;;18.51;100.00
12468;BME280;57850;52.922;6.256;2023-08-06T02:21:31;100292.94;;;18.43;100.00
12468;BME280;57850;52.922;6.256;2023-08-06T02:23:58;100290.31;;;18.43;100.00
12468;BME280;57850;52.922;6.256;2023-08-06T02:26:25;100284.34;;;18.52;100.00
12468;BME280;57850;52.922;6.256;2023-08-06T02:28:52;100291.16;;;18.43;100.00
12468;BME280;57850;52.922;6.256;2023-08-06T02:31:19;100299.22;;;18.42;100.00
12468;BME280;57850;52.922;6.256;2023-08-06T02:33:46;100282.16;;;18.46;100.00
12468;BME280;57850;52.922;6.256;2023-08-06T02:36:12;100287.19;;;18.38;100.00
12468;BME280;57850;52.922;6.256;2023-08-06T02:38:39;100290.69;;;18.38;100.00
12468;BME280;57850;52.922;6.256;2023-08-06T02:41:06;100293.66;;;18.34;100.00
12468;BME280;57850;52.922;6.256;2023-08-06T02:43:32;100290.88;;;18.24;100.00
12468;BME280;57850;52.922;6.256;2023-08-06T02:46:00;100282.50;;;18.30;100.00
12468;BME280;57850;52.922;6.256;2023-08-06T02:48:27;100286.13;;;18.29;100.00
12468;BME280;57850;52.922;6.256;2023-08-06T02:50:57;100290.41;;;18.30;100.00
12468;BME280;57850;52.922;6.256;2023-08-06T02:53:23;100292.97;;;18.32;100.00
12468;BME280;57850;52.922;6.256;2023-08-06T02:55:50;100290.66;;;18.27;100.00
12468;BME280;57850;52.922;6.256;2023-08-06T02:58:17;100292.44;;;18.27;100.00
12468;BME280;57850;52.922;6.256;2023-08-06T03:01:00;100280.31;;;18.24;100.00
12468;BME280;57850;52.922;6.256;2023-08-06T03:03:28;100274.09;;;18.25;100.00
12468;BME280;57850;52.922;6.256;2023-08-06T03:05:54;100267.34;;;18.21;100.00
12468;BME280;57850;52.922;6.256;2023-08-06T03:08:21;100268.81;;;18.25;100.00
12468;BME280;57850;52.922;6.256;2023-08-06T03:10:48;100279.47;;;18.24;100.00
12468;BME280;57850;52.922;6.256;2023-08-06T03:13:16;100276.22;;;18.20;100.00
12468;BME280;57850;52.922;6.256;2023-08-06T03:15:43;100261.69;;;18.14;100.00
12468;BME280;57850;52.922;6.256;2023-08-06T03:18:11;100255.09;;;18.20;100.00
12468;BME280;57850;52.922;6.256;2023-08-06T03:20:38;100254.03;;;18.23;100.00
12468;BME280;57850;52.922;6.256;2023-08-06T03:23:05;100262.34;;;18.29;100.00
12468;BME280;57850;52.922;6.256;2023-08-06T03:25:35;100266.88;;;18.27;100.00
12468;BME280;57850;52.922;6.256;2023-08-06T03:28:01;100272.28;;;18.26;100.00
12468;BME280;57850;52.922;6.256;2023-08-06T03:30:28;100280.09;;;18.16;100.00
12468;BME280;57850;52.922;6.256;2023-08-06T03:32:54;100266.50;;;18.20;100.00
12468;BME280;57850;52.922;6.256;2023-08-06T03:35:22;100267.72;;;18.16;100.00
12468;BME280;57850;52.922;6.256;2023-08-06T03:37:49;100256.78;;;18.21;100.00
12468;BME280;57850;52.922;6.256;2023-08-06T03:40:16;100252.97;;;18.25;100.00
12468;BME280;57850;52.922;6.256;2023-08-06T03:42:42;100262.22;;;18.31;100.00
12468;BME280;57850;52.922;6.256;2023-08-06T03:45:09;100262.91;;;18.33;100.00
12468;BME280;57850;52.922;6.256;2023-08-06T03:47:36;100270.59;;;18.36;100.00
12468;BME280;57850;52.922;6.256;2023-08-06T03:50:03;100274.09;;;18.36;100.00
12468;BME280;57850;52.922;6.256;2023-08-06T03:52:31;100271.69;;;18.33;100.00
12468;BME280;57850;52.922;6.256;2023-08-06T03:54:57;100266.88;;;18.27;100.00
12468;BME280;57850;52.922;6.256;2023-08-06T03:57:24;100269.75;;;18.24;100.00
12468;BME280;57850;52.922;6.256;2023-08-06T03:59:51;100268.34;;;18.31;100.00
12468;BME280;57850;52.922;6.256;2023-08-06T04:02:17;100264.84;;;18.31;100.00
12468;BME280;57850;52.922;6.256;2023-08-06T04:04:45;100267.50;;;18.31;100.00
12468;BME280;57850;52.922;6.256;2023-08-06T04:07:11;100268.94;;;18.35;100.00
12468;BME280;57850;52.922;6.256;2023-08-06T04:09:52;100260.41;;;18.42;100.00
12468;BME280;57850;52.922;6.256;2023-08-06T04:12:19;100269.41;;;18.40;100.00
12468;BME280;57850;52.922;6.256;2023-08-06T04:14:46;100258.00;;;18.39;100.00
12468;BME280;57850;52.922;6.256;2023-08-06T04:17:12;100255.50;;;18.38;100.00
12468;BME280;57850;52.922;6.256;2023-08-06T04:19:40;100263.91;;;18.43;100.00
12468;BME280;57850;52.922;6.256;2023-08-06T04:22:06;100271.81;;;18.43;100.00
12468;BME280;57850;52.922;6.256;2023-08-06T04:24:33;100274.22;;;18.46;100.00
12468;BME280;57850;52.922;6.256;2023-08-06T04:27:01;100263.56;;;18.47;100.00
12468;BME280;57850;52.922;6.256;2023-08-06T04:29:27;100279.50;;;18.46;100.00
12468;BME280;57850;52.922;6.256;2023-08-06T04:31:54;100267.13;;;18.46;100.00
12468;BME280;57850;52.922;6.256;2023-08-06T04:34:20;100267.13;;;18.46;100.00
12468;BME280;57850;52.922;6.256;2023-08-06T04:36:48;100254.88;;;18.45;100.00
12468;BME280;57850;52.922;6.256;2023-08-06T04:39:15;100261.16;;;18.55;100.00
12468;BME280;57850;52.922;6.256;2023-08-06T04:41:41;100269.22;;;18.54;100.00
12468;BME280;57850;52.922;6.256;2023-08-06T04:44:09;100258.53;;;18.55;100.00
12468;BME280;57850;52.922;6.256;2023-08-06T04:46:36;100265.97;;;18.61;100.00
12468;BME280;57850;52.922;6.256;2023-08-06T04:49:03;100263.22;;;18.63;100.00
12468;BME280;57850;52.922;6.256;2023-08-06T04:51:29;100269.69;;;18.59;100.00
12468;BME280;57850;52.922;6.256;2023-08-06T04:53:56;100270.66;;;18.58;100.00
12468;BME280;57850;52.922;6.256;2023-08-06T04:56:23;100265.47;;;18.67;100.00
12468;BME280;57850;52.922;6.256;2023-08-06T04:58:50;100268.13;;;18.67;100.00
12468;BME280;57850;52.922;6.256;2023-08-06T05:01:18;100272.47;;;18.68;100.00
12468;BME280;57850;52.922;6.256;2023-08-06T05:03:46;100266.56;;;18.65;100.00
12468;BME280;57850;52.922;6.256;2023-08-06T05:06:13;100258.66;;;18.76;100.00
12468;BME280;57850;52.922;6.256;2023-08-06T05:08:40;100256.84;;;18.65;100.00
12468;BME280;57850;52.922;6.256;2023-08-06T05:11:07;100247.72;;;18.69;100.00
12468;BME280;57850;52.922;6.256;2023-08-06T05:13:33;100246.00;;;18.80;100.00
12468;BME280;57850;52.922;6.256;2023-08-06T05:16:00;100249.97;;;18.74;100.00
12468;BME280;57850;52.922;6.256;2023-08-06T05:18:28;100243.22;;;18.92;100.00
12468;BME280;57850;52.922;6.256;2023-08-06T05:20:55;100247.44;;;18.95;100.00
12468;BME280;57850;52.922;6.256;2023-08-06T05:23:22;100266.09;;;18.82;100.00
12468;BME280;57850;52.922;6.256;2023-08-06T05:25:49;100267.66;;;18.85;100.00
12468;BME280;57850;52.922;6.256;2023-08-06T05:28:15;100256.59;;;18.68;100.00
12468;BME280;57850;52.922;6.256;2023-08-06T05:30:42;100257.81;;;18.76;100.00
12468;BME280;57850;52.922;6.256;2023-08-06T05:33:08;100263.69;;;18.79;100.00
12468;BME280;57850;52.922;6.256;2023-08-06T05:35:36;100255.63;;;18.81;100.00
12468;BME280;57850;52.922;6.256;2023-08-06T05:38:03;100268.22;;;18.99;100.00
12468;BME280;57850;52.922;6.256;2023-08-06T05:40:29;100287.06;;;19.06;100.00
12468;BME280;57850;52.922;6.256;2023-08-06T05:42:56;100282.84;;;19.14;100.00
12468;BME280;57850;52.922;6.256;2023-08-06T05:45:22;100287.78;;;19.19;100.00
12468;BME280;57850;52.922;6.256;2023-08-06T05:47:49;100303.31;;;19.12;100.00
12468;BME280;57850;52.922;6.256;2023-08-06T05:50:16;100307.59;;;19.24;100.00
12468;BME280;57850;52.922;6.256;2023-08-06T05:52:43;100290.84;;;19.46;100.00
12468;BME280;57850;52.922;6.256;2023-08-06T05:55:11;100307.41;;;19.59;100.00
12468;BME280;57850;52.922;6.256;2023-08-06T05:57:38;100315.16;;;19.51;100.00
12468;BME280;57850;52.922;6.256;2023-08-06T06:00:05;100322.59;;;19.57;100.00
12468;BME280;57850;52.922;6.256;2023-08-06T06:02:33;100343.28;;;19.84;100.00
12468;BME280;57850;52.922;6.256;2023-08-06T06:04:59;100334.31;;;19.75;100.00
12468;BME280;57850;52.922;6.256;2023-08-06T06:07:26;100328.84;;;19.88;100.00
12468;BME280;57850;52.922;6.256;2023-08-06T06:09:54;100342.88;;;20.00;100.00
12468;BME280;57850;52.922;6.256;2023-08-06T06:12:20;100383.72;;;19.86;100.00
12468;BME280;57850;52.922;6.256;2023-08-06T06:14:47;100382.16;;;19.95;100.00
12468;BME280;57850;52.922;6.256;2023-08-06T06:17:15;100378.66;;;20.26;100.00
12468;BME280;57850;52.922;6.256;2023-08-06T06:19:41;100388.50;;;20.24;100.00
12468;BME280;57850;52.922;6.256;2023-08-06T06:22:08;100398.81;;;20.06;100.00
12468;BME280;57850;52.922;6.256;2023-08-06T06:24:34;100392.31;;;20.42;100.00
12468;BME280;57850;52.922;6.256;2023-08-06T06:27:03;100416.16;;;20.42;100.00
12468;BME280;57850;52.922;6.256;2023-08-06T06:29:30;100417.06;;;20.20;100.00
12468;BME280;57850;52.922;6.256;2023-08-06T06:31:56;100411.06;;;20.29;100.00
12468;BME280;57850;52.922;6.256;2023-08-06T06:34:23;100443.03;;;20.38;100.00
12468;BME280;57850;52.922;6.256;2023-08-06T06:36:49;100448.75;;;20.22;100.00
12468;BME280;57850;52.922;6.256;2023-08-06T06:39:17;100444.06;;;20.14;100.00
12468;BME280;57850;52.922;6.256;2023-08-06T06:41:45;100462.63;;;20.46;100.00
12468;BME280;57850;52.922;6.256;2023-08-06T06:44:13;100471.13;;;20.61;100.00
12468;BME280;57850;52.922;6.256;2023-08-06T06:46:40;100452.16;;;20.65;100.00
12468;BME280;57850;52.922;6.256;2023-08-06T06:49:07;100473.91;;;20.59;100.00
12468;BME280;57850;52.922;6.256;2023-08-06T06:51:34;100452.50;;;20.72;100.00
12468;BME280;57850;52.922;6.256;2023-08-06T06:54:00;100455.59;;;20.77;100.00
12468;BME280;57850;52.922;6.256;2023-08-06T06:56:27;100486.84;;;20.73;100.00
12468;BME280;57850;52.922;6.256;2023-08-06T06:58:53;100487.94;;;20.71;100.00
12468;BME280;57850;52.922;6.256;2023-08-06T07:01:21;100505.59;;;20.29;100.00
12468;BME280;57850;52.922;6.256;2023-08-06T07:03:48;100481.78;;;20.50;100.00
12468;BME280;57850;52.922;6.256;2023-08-06T07:06:15;100508.13;;;20.30;100.00
12468;BME280;57850;52.922;6.256;2023-08-06T07:08:43;100497.50;;;20.42;100.00
12468;BME280;57850;52.922;6.256;2023-08-06T07:11:10;100481.81;;;20.70;100.00
12468;BME280;57850;52.922;6.256;2023-08-06T07:13:37;100494.25;;;20.59;100.00
12468;BME280;57850;52.922;6.256;2023-08-06T07:16:04;100503.47;;;20.55;100.00
12468;BME280;57850;52.922;6.256;2023-08-06T07:18:31;100497.91;;;20.78;100.00
12468;BME280;57850;52.922;6.256;2023-08-06T07:20:58;100515.63;;;20.57;100.00
12468;BME280;57850;52.922;6.256;2023-08-06T07:23:25;100502.09;;;20.60;100.00
12468;BME280;57850;52.922;6.256;2023-08-06T07:25:52;100507.25;;;20.62;100.00
12468;BME280;57850;52.922;6.256;2023-08-06T07:28:19;100507.22;;;20.73;100.00
12468;BME280;57850;52.922;6.256;2023-08-06T07:30:46;100483.94;;;20.76;100.00
12468;BME280;57850;52.922;6.256;2023-08-06T07:33:13;100479.72;;;20.95;100.00
12468;BME280;57850;52.922;6.256;2023-08-06T07:35:41;100517.84;;;20.94;100.00
12468;BME280;57850;52.922;6.256;2023-08-06T07:38:08;100513.25;;;21.16;100.00
12468;BME280;57850;52.922;6.256;2023-08-06T07:40:35;100526.84;;;21.23;100.00
12468;BME280;57850;52.922;6.256;2023-08-06T07:43:02;100540.66;;;21.47;100.00
12468;BME280;57850;52.922;6.256;2023-08-06T07:45:32;100575.97;;;21.38;100.00
12468;BME280;57850;52.922;6.256;2023-08-06T07:47:59;100573.38;;;21.48;100.00
12468;BME280;57850;52.922;6.256;2023-08-06T07:50:25;100577.03;;;21.56;100.00
12468;BME280;57850;52.922;6.256;2023-08-06T07:52:53;100589.97;;;21.19;100.00
12468;BME280;57850;52.922;6.256;2023-08-06T07:55:20;100558.19;;;21.29;100.00
12468;BME280;57850;52.922;6.256;2023-08-06T07:57:46;100555.69;;;21.58;100.00
12468;BME280;57850;52.922;6.256;2023-08-06T08:00:13;100580.53;;;21.26;100.00
12468;BME280;57850;52.922;6.256;2023-08-06T08:02:40;100571.19;;;21.62;100.00
12468;BME280;57850;52.922;6.256;2023-08-06T08:05:07;100583.25;;;21.66;100.00
12468;BME280;57850;52.922;6.256;2023-08-06T08:07:33;100602.91;;;21.54;100.00
12468;BME280;57850;52.922;6.256;2023-08-06T08:10:01;100591.06;;;21.38;100.00
12468;BME280;57850;52.922;6.256;2023-08-06T08:12:28;100566.34;;;21.67;100.00
12468;BME280;57850;52.922;6.256;2023-08-06T08:14:55;100568.88;;;21.69;100.00
12468;BME280;57850;52.922;6.256;2023-08-06T08:17:21;100582.13;;;21.90;100.00
12468;BME280;57850;52.922;6.256;2023-08-06T08:19:48;100595.94;;;22.14;100.00
12468;BME280;57850;52.922;6.256;2023-08-06T08:22:15;100627.91;;;22.03;100.00
12468;BME280;57850;52.922;6.256;2023-08-06T08:24:41;100627.97;;;22.22;100.00
12468;BME280;57850;52.922;6.256;2023-08-06T08:27:09;100649.78;;;22.16;100.00
12468;BME280;57850;52.922;6.256;2023-08-06T08:29:36;100650.31;;;22.10;100.00
12468;BME280;57850;52.922;6.256;2023-08-06T08:32:03;100638.16;;;22.57;100.00
12468;BME280;57850;52.922;6.256;2023-08-06T08:34:29;100672.00;;;22.45;100.00
12468;BME280;57850;52.922;6.256;2023-08-06T08:36:56;100679.47;;;22.30;100.00
12468;BME280;57850;52.922;6.256;2023-08-06T08:39:23;100693.44;;;22.63;100.00
12468;BME280;57850;52.922;6.256;2023-08-06T08:41:50;100708.25;;;22.56;100.00
12468;BME280;57850;52.922;6.256;2023-08-06T08:44:18;100685.25;;;22.35;100.00
12468;BME280;57850;52.922;6.256;2023-08-06T08:46:46;100677.88;;;22.49;100.00
12468;BME280;57850;52.922;6.256;2023-08-06T08:49:15;100675.16;;;22.69;100.00
12468;BME280;57850;52.922;6.256;2023-08-06T08:51:43;100702.28;;;22.63;100.00
12468;BME280;57850;52.922;6.256;2023-08-06T08:54:12;100714.03;;;22.61;100.00
12468;BME280;57850;52.922;6.256;2023-08-06T08:56:40;100702.13;;;22.65;100.00
12468;BME280;57850;52.922;6.256;2023-08-06T08:59:06;100712.50;;;22.58;100.00
12468;BME280;57850;52.922;6.256;2023-08-06T09:01:35;100699.47;;;22.55;100.00
12468;BME280;57850;52.922;6.256;2023-08-06T09:04:01;100699.63;;;22.63;100.00
12468;BME280;57850;52.922;6.256;2023-08-06T09:06:29;100717.47;;;22.82;100.00
12468;BME280;57850;52.922;6.256;2023-08-06T09:09:01;100727.28;;;22.81;100.00
12468;BME280;57850;52.922;6.256;2023-08-06T09:11:34;100756.41;;;22.73;100.00
12468;BME280;57850;52.922;6.256;2023-08-06T09:14:06;100748.03;;;22.97;100.00
12468;BME280;57850;52.922;6.256;2023-08-06T09:16:35;100773.75;;;22.68;100.00
12468;BME280;57850;52.922;6.256;2023-08-06T09:19:07;100747.50;;;22.63;100.00
12468;BME280;57850;52.922;6.256;2023-08-06T09:21:36;100735.47;;;22.99;100.00
12468;BME280;57850;52.922;6.256;2023-08-06T09:24:07;100734.53;;;23.48;100.00
12468;BME280;57850;52.922;6.256;2023-08-06T09:26:34;100774.63;;;23.46;100.00
12468;BME280;57850;52.922;6.256;2023-08-06T09:29:00;100777.16;;;23.67;100.00
12468;BME280;57850;52.922;6.256;2023-08-06T09:31:32;100817.66;;;23.42;100.00
12468;BME280;57850;52.922;6.256;2023-08-06T09:34:02;100793.41;;;23.45;100.00
12468;BME280;57850;52.922;6.256;2023-08-06T09:36:28;100774.19;;;23.89;100.00
12468;BME280;57850;52.922;6.256;2023-08-06T09:38:56;100818.47;;;23.33;100.00
12468;BME280;57850;52.922;6.256;2023-08-06T09:41:26;100805.91;;;24.12;100.00
12468;BME280;57850;52.922;6.256;2023-08-06T09:43:54;100814.00;;;24.00;100.00
12468;BME280;57850;52.922;6.256;2023-08-06T09:46:20;100814.97;;;24.09;100.00
12468;BME280;57850;52.922;6.256;2023-08-06T09:48:47;100832.38;;;24.04;100.00
12468;BME280;57850;52.922;6.256;2023-08-06T09:51:16;100820.06;;;24.68;100.00
12468;BME280;57850;52.922;6.256;2023-08-06T09:53:43;100829.94;;;24.95;100.00
12468;BME280;57850;52.922;6.256;2023-08-06T09:56:12;100846.59;;;25.07;100.00
12468;BME280;57850;52.922;6.256;2023-08-06T09:58:41;100846.19;;;25.29;100.00
12468;BME280;57850;52.922;6.256;2023-08-06T10:01:08;100874.78;;;25.19;100.00
12468;BME280;57850;52.922;6.256;2023-08-06T10:03:36;100874.09;;;25.17;100.00
12468;BME280;57850;52.922;6.256;2023-08-06T10:06:03;100883.66;;;24.73;100.00
12468;BME280;57850;52.922;6.256;2023-08-06T10:08:33;100850.50;;;25.39;100.00
12468;BME280;57850;52.922;6.256;2023-08-06T10:11:01;100859.16;;;25.24;100.00
12468;BME280;57850;52.922;6.256;2023-08-06T10:13:29;100845.84;;;25.41;100.00
12468;BME280;57850;52.922;6.256;2023-08-06T10:15:56;100849.34;;;25.42;100.00
12468;BME280;57850;52.922;6.256;2023-08-06T10:18:23;100856.03;;;25.28;100.00
12468;BME280;57850;52.922;6.256;2023-08-06T10:20:50;100856.53;;;25.41;100.00
12468;BME280;57850;52.922;6.256;2023-08-06T10:23:17;100864.81;;;25.21;100.00
12468;BME280;57850;52.922;6.256;2023-08-06T10:25:53;100848.56;;;25.59;100.00
12468;BME280;57850;52.922;6.256;2023-08-06T10:28:21;100856.81;;;25.38;100.00
12468;BME280;57850;52.922;6.256;2023-08-06T10:30:48;100853.06;;;25.76;100.00
12468;BME280;57850;52.922;6.256;2023-08-06T10:33:19;100854.06;;;25.93;100.00
12468;BME280;57850;52.922;6.256;2023-08-06T10:35:47;100883.81;;;24.71;100.00
12468;BME280;57850;52.922;6.256;2023-08-06T10:38:15;100861.28;;;24.93;100.00
12468;BME280;57850;52.922;6.256;2023-08-06T10:41:00;100871.00;;;24.75;100.00
12468;BME280;57850;52.922;6.256;2023-08-06T10:43:28;100854.81;;;25.50;100.00
12468;BME280;57850;52.922;6.256;2023-08-06T10:45:56;100854.22;;;25.74;100.00
12468;BME280;57850;52.922;6.256;2023-08-06T10:48:30;100859.84;;;25.53;100.00
12468;BME280;57850;52.922;6.256;2023-08-06T10:50:57;100861.97;;;25.22;100.00
12468;BME280;57850;52.922;6.256;2023-08-06T10:53:23;100865.28;;;24.70;100.00
12468;BME280;57850;52.922;6.256;2023-08-06T10:55:52;100854.34;;;24.63;100.00
12468;BME280;57850;52.922;6.256;2023-08-06T10:58:18;100837.16;;;24.75;100.00
12468;BME280;57850;52.922;6.256;2023-08-06T11:00:45;100836.25;;;24.57;100.00
12468;BME280;57850;52.922;6.256;2023-08-06T11:03:12;100813.66;;;24.51;100.00
12468;BME280;57850;52.922;6.256;2023-08-06T11:05:39;100828.13;;;24.49;100.00
12468;BME280;57850;52.922;6.256;2023-08-06T11:08:05;100838.66;;;24.41;100.00
12468;BME280;57850;52.922;6.256;2023-08-06T11:10:33;100822.41;;;24.34;100.00
12468;BME280;57850;52.922;6.256;2023-08-06T11:13:02;100831.97;;;24.37;100.00
12468;BME280;57850;52.922;6.256;2023-08-06T11:15:30;100835.72;;;24.34;100.00
12468;BME280;57850;52.922;6.256;2023-08-06T11:17:56;100850.63;;;24.37;100.00
12468;BME280;57850;52.922;6.256;2023-08-06T11:20:24;100855.44;;;24.14;100.00
12468;BME280;57850;52.922;6.256;2023-08-06T11:22:50;100845.16;;;24.29;100.00
12468;BME280;57850;52.922;6.256;2023-08-06T11:25:20;100858.06;;;24.43;100.00
12468;BME280;57850;52.922;6.256;2023-08-06T11:27:46;100852.28;;;24.47;100.00
12468;BME280;57850;52.922;6.256;2023-08-06T11:30:15;100865.16;;;24.62;100.00
12468;BME280;57850;52.922;6.256;2023-08-06T11:32:45;100843.28;;;24.95;100.00
12468;BME280;57850;52.922;6.256;2023-08-06T11:35:13;100847.59;;;25.06;100.00
12468;BME280;57850;52.922;6.256;2023-08-06T11:37:44;100858.84;;;25.09;100.00
12468;BME280;57850;52.922;6.256;2023-08-06T11:40:13;100866.09;;;25.17;100.00
12468;BME280;57850;52.922;6.256;2023-08-06T11:42:41;100863.81;;;25.22;100.00
12468;BME280;57850;52.922;6.256;2023-08-06T11:45:09;100861.97;;;25.22;100.00
12468;BME280;57850;52.922;6.256;2023-08-06T11:47:39;100862.75;;;25.15;100.00
12468;BME280;57850;52.922;6.256;2023-08-06T11:50:07;100872.63;;;25.04;100.00
12468;BME280;57850;52.922;6.256;2023-08-06T11:52:34;100858.88;;;25.44;100.00
12468;BME280;57850;52.922;6.256;2023-08-06T11:55:01;100861.03;;;25.41;100.00
12468;BME280;57850;52.922;6.256;2023-08-06T11:57:30;100858.50;;;25.39;100.00
12468;BME280;57850;52.922;6.256;2023-08-06T12:00:03;100859.91;;;25.43;100.00
12468;BME280;57850;52.922;6.256;2023-08-06T12:02:31;100865.41;;;25.15;100.00
12468;BME280;57850;52.922;6.256;2023-08-06T12:05:04;100852.41;;;25.47;100.00
12468;BME280;57850;52.922;6.256;2023-08-06T12:07:37;100848.66;;;25.49;100.00
12468;BME280;57850;52.922;6.256;2023-08-06T12:10:05;100835.50;;;26.09;100.00
12468;BME280;57850;52.922;6.256;2023-08-06T12:12:32;100841.19;;;26.32;100.00
12468;BME280;57850;52.922;6.256;2023-08-06T12:14:58;100840.88;;;26.35;100.00
12468;BME280;57850;52.922;6.256;2023-08-06T12:17:25;100840.63;;;26.02;100.00
12468;BME280;57850;52.922;6.256;2023-08-06T12:19:52;100861.06;;;25.94;100.00
12468;BME280;57850;52.922;6.256;2023-08-06T12:22:20;100867.44;;;25.48;100.00
12468;BME280;57850;52.922;6.256;2023-08-06T12:24:47;100871.41;;;25.44;100.00
12468;BME280;57850;52.922;6.256;2023-08-06T12:27:14;100879.25;;;25.28;100.00
12468;BME280;57850;52.922;6.256;2023-08-06T12:29:42;100882.50;;;25.22;100.00
12468;BME280;57850;52.922;6.256;2023-08-06T12:32:09;100882.66;;;25.20;100.00
12468;BME280;57850;52.922;6.256;2023-08-06T12:34:37;100885.81;;;25.06;100.00
12468;BME280;57850;52.922;6.256;2023-08-06T12:37:04;100891.22;;;24.96;100.00
12468;BME280;57850;52.922;6.256;2023-08-06T12:39:32;100881.13;;;25.18;100.00
12468;BME280;57850;52.922;6.256;2023-08-06T12:41:59;100883.94;;;25.16;100.00